메인 페이지
METAR-TAF:

METAR-TAF

공항 :

코피트나리 공항

쿠타이시, 조지아

위도: 42-10-35N, 경도: 042-28-57E, 고도: 68m

현재 날씨관측

예보는 21분 전, 10:30시(UTC)에 발표되었습니다.
동북동3kt
온도 6°C
습도 70%
기압 1022 hPa
시정 10km 이상
고도 4300ft 상공 구름 많음

METAR: UGKO 181030Z 07003KT 9999 BKN043 06/01 Q1022 NOSIG

시각: 14:51 (10:51 UTC)

예보

예보는 5 시간 51분 전, 05:00시(UTC)에 발표되었습니다.
예보 대상 시간: 18일 06시부터 19일 06시까지 (UTC)
6kt
시정 10km 이상
고도 3500ft 상공 구름 많음
전환 중
18일 20시부터 18일 22시까지 (UTC)
시정 10km 이상
1500m 미만 상공 구름 및 적란운 없음

TAF: UGKO 180500Z 1806/1906 08006KT 9999 BKN035 TX08/1811Z TNM01/1903Z BECMG 1820/1822 CAVOK

4,000개 이상의 공항 관측 자료 및 예보 (METAR 및 TAF 보고).

지도상에서 검색 가능한 기상관측소가 노란 점과 빨간 점으로 표시되어 있습니다.

기상관측소 명을 보려면 표시 위로 마우스를 이동하세요.

날씨 관측과 예보를 보려면 클릭하세요.

지도 변경 : 확대하려면 엑스 표시가 있는 녹색 버튼, 축소하려면 빼기 표시가 있는 녹색 버튼, 다음 페이지의 지도를 보려면 녹색 화살표를 클릭하세요.


METAR-TAF: